createdAt,value
2022-09-29T00:00:31.464Z,5.13
2022-09-29T00:02:58.146Z,7.22
2022-09-29T00:05:24.659Z,7.43
2022-09-29T00:07:51.291Z,6.90
2022-09-29T00:10:17.979Z,5.53
2022-09-29T00:12:44.645Z,4.82
2022-09-29T00:15:11.697Z,7.38
2022-09-29T00:17:38.222Z,5.13
2022-09-29T00:20:05.207Z,11.90
2022-09-29T00:22:31.787Z,5.95
2022-09-29T00:24:58.303Z,7.35
2022-09-29T00:27:25.038Z,6.95
2022-09-29T00:29:51.948Z,6.03
2022-09-29T00:32:18.751Z,5.15
2022-09-29T00:34:45.248Z,5.10
2022-09-29T00:37:11.901Z,5.05
2022-09-29T00:39:38.401Z,8.45
2022-09-29T00:42:05.115Z,6.97
2022-09-29T00:45:02.464Z,6.70
2022-09-29T00:47:31.492Z,7.30
2022-09-29T00:50:23.230Z,5.57
2022-09-29T00:52:55.809Z,3.85
2022-09-29T00:55:31.746Z,3.90
2022-09-29T00:58:22.735Z,5.55
2022-09-29T01:00:49.764Z,6.75
2022-09-29T01:03:20.144Z,6.72
2022-09-29T01:05:54.847Z,7.28
2022-09-29T01:08:43.001Z,8.70
2022-09-29T01:11:12.367Z,5.40
2022-09-29T01:13:41.488Z,4.55
2022-09-29T01:16:08.327Z,5.25
2022-09-29T01:18:35.039Z,6.32
2022-09-29T01:21:34.122Z,5.93
2022-09-29T01:24:19.409Z,3.50
2022-09-29T01:26:56.392Z,4.07
2022-09-29T01:29:35.468Z,7.88
2022-09-29T01:32:26.182Z,6.03
2022-09-29T01:35:15.437Z,7.20
2022-09-29T01:37:53.807Z,3.78
2022-09-29T01:40:50.350Z,6.97
2022-09-29T01:43:23.625Z,6.78
2022-09-29T01:46:03.708Z,7.22
2022-09-29T01:48:36.248Z,5.95
2022-09-29T01:51:10.029Z,8.00
2022-09-29T01:53:45.791Z,8.65
2022-09-29T01:56:21.395Z,7.00
2022-09-29T01:59:04.485Z,8.25
2022-09-29T02:01:38.794Z,7.20
2022-09-29T02:04:16.187Z,8.20
2022-09-29T02:06:55.861Z,8.90
2022-09-29T02:09:30.728Z,8.52
2022-09-29T02:12:01.330Z,6.37
2022-09-29T02:14:34.929Z,5.88
2022-09-29T02:17:30.020Z,3.38
2022-09-29T02:19:56.716Z,5.55
2022-09-29T02:22:23.398Z,4.32
2022-09-29T02:24:55.395Z,5.88
2022-09-29T02:27:22.841Z,8.90
2022-09-29T02:29:49.664Z,4.00
2022-09-29T02:32:16.678Z,4.85
2022-09-29T02:34:46.687Z,5.55
2022-09-29T02:37:25.448Z,6.50
2022-09-29T02:40:04.300Z,10.38
2022-09-29T02:43:04.297Z,6.72
2022-09-29T02:45:38.773Z,6.28
2022-09-29T02:48:23.832Z,10.77
2022-09-29T02:51:08.721Z,7.83
2022-09-29T02:53:44.522Z,8.68
2022-09-29T02:56:17.243Z,5.05
2022-09-29T02:59:11.998Z,7.90
2022-09-29T03:01:50.512Z,7.28
2022-09-29T03:04:18.272Z,7.65
2022-09-29T03:06:44.773Z,8.98
2022-09-29T03:09:11.838Z,9.15
2022-09-29T03:11:38.468Z,8.60
2022-09-29T03:14:06.562Z,7.15
2022-09-29T03:16:33.922Z,6.03
2022-09-29T03:19:00.877Z,16.08
2022-09-29T03:21:28.673Z,8.25
2022-09-29T03:23:57.658Z,6.47
2022-09-29T03:26:24.847Z,7.15
2022-09-29T03:28:52.248Z,8.27
2022-09-29T03:31:19.000Z,9.10
2022-09-29T03:33:46.081Z,6.25
2022-09-29T03:36:12.911Z,9.35
2022-09-29T03:38:39.523Z,7.80
2022-09-29T03:41:07.469Z,8.35
2022-09-29T03:43:34.112Z,7.55
2022-09-29T03:46:00.890Z,8.35
2022-09-29T03:48:31.096Z,7.35
2022-09-29T03:50:57.941Z,7.97
2022-09-29T03:53:24.695Z,7.47
2022-09-29T03:55:51.696Z,8.90
2022-09-29T03:58:18.822Z,10.73
2022-09-29T04:00:46.313Z,14.10
2022-09-29T04:03:12.823Z,6.65
2022-09-29T04:05:40.590Z,6.07
2022-09-29T04:08:08.468Z,8.75
2022-09-29T04:10:38.821Z,5.38
2022-09-29T04:13:06.797Z,6.55
2022-09-29T04:15:33.371Z,8.63
2022-09-29T04:18:00.231Z,7.30
2022-09-29T04:20:27.379Z,5.80
2022-09-29T04:22:53.915Z,7.53
2022-09-29T04:25:20.561Z,11.00
2022-09-29T04:27:47.023Z,5.80
2022-09-29T04:30:13.826Z,6.65
2022-09-29T04:32:40.490Z,6.00
2022-09-29T04:35:07.711Z,7.95
2022-09-29T04:37:34.492Z,7.63
2022-09-29T04:40:02.415Z,6.03
2022-09-29T04:42:29.314Z,5.40
2022-09-29T04:44:55.877Z,7.20
2022-09-29T04:47:22.333Z,6.35
2022-09-29T04:49:48.944Z,6.57
2022-09-29T04:52:15.496Z,6.90
2022-09-29T04:54:42.072Z,5.90
2022-09-29T04:57:10.583Z,8.35
2022-09-29T04:59:37.394Z,5.70
2022-09-29T05:02:04.045Z,6.47
2022-09-29T05:04:30.805Z,6.40
2022-09-29T05:06:57.329Z,7.80
2022-09-29T05:09:24.938Z,7.20
2022-09-29T05:11:52.050Z,5.72
2022-09-29T05:14:18.569Z,8.15
2022-09-29T05:16:45.208Z,7.88
2022-09-29T05:19:11.938Z,8.88
2022-09-29T05:21:38.482Z,8.98
2022-09-29T05:24:05.425Z,6.93
2022-09-29T05:26:32.280Z,11.82
2022-09-29T05:28:58.907Z,10.15
2022-09-29T05:31:25.494Z,10.82
2022-09-29T05:33:52.077Z,11.10
2022-09-29T05:36:18.604Z,11.55
2022-09-29T05:38:45.153Z,5.85
2022-09-29T05:41:13.466Z,7.53
2022-09-29T05:43:40.880Z,7.25
2022-09-29T05:46:09.125Z,8.10
2022-09-29T05:48:36.418Z,7.28
2022-09-29T05:51:14.386Z,7.35
2022-09-29T05:53:41.911Z,4.68
2022-09-29T05:56:11.888Z,6.60
2022-09-29T05:58:39.623Z,10.27
2022-09-29T06:01:12.938Z,7.43
2022-09-29T06:03:40.156Z,6.13
2022-09-29T06:06:07.692Z,18.60
2022-09-29T06:08:34.841Z,24.80
2022-09-29T06:11:28.781Z,26.45
2022-09-29T06:13:56.607Z,12.45
2022-09-29T06:16:28.918Z,9.10
2022-09-29T06:18:56.235Z,8.27
2022-09-29T06:21:25.266Z,8.82
2022-09-29T06:23:54.215Z,9.68
2022-09-29T06:26:24.200Z,10.68
2022-09-29T06:28:53.083Z,15.70
2022-09-29T06:31:22.489Z,8.43
2022-09-29T06:33:49.783Z,9.25
2022-09-29T06:36:40.155Z,13.13
2022-09-29T06:39:09.501Z,6.97
2022-09-29T06:41:36.134Z,9.48
2022-09-29T06:44:03.207Z,5.45
2022-09-29T06:46:30.253Z,9.07
2022-09-29T06:48:57.489Z,9.57
2022-09-29T06:51:34.424Z,7.57
2022-09-29T06:54:11.462Z,8.52
2022-09-29T06:56:39.231Z,6.38
2022-09-29T06:59:06.256Z,9.23
2022-09-29T07:01:32.991Z,9.20
2022-09-29T07:04:02.691Z,12.73
2022-09-29T07:06:30.595Z,7.10
2022-09-29T07:08:58.695Z,12.60
2022-09-29T07:11:26.610Z,8.77
2022-09-29T07:13:55.114Z,13.38
2022-09-29T07:16:24.042Z,7.72
2022-09-29T07:18:51.653Z,11.57
2022-09-29T07:21:19.475Z,9.15
2022-09-29T07:23:46.910Z,9.43
2022-09-29T07:26:16.505Z,13.32
2022-09-29T07:28:44.424Z,8.38
2022-09-29T07:31:16.054Z,15.88
2022-09-29T07:33:44.431Z,11.27
2022-09-29T07:36:11.513Z,10.63
2022-09-29T07:38:38.071Z,12.07
2022-09-29T07:41:07.612Z,9.38
2022-09-29T07:43:34.944Z,9.85
2022-09-29T07:46:02.066Z,6.90
2022-09-29T07:48:31.856Z,9.75
2022-09-29T07:51:28.102Z,9.77
2022-09-29T07:53:54.844Z,11.38
2022-09-29T07:56:22.909Z,10.20
2022-09-29T07:58:50.722Z,6.85
2022-09-29T08:01:18.994Z,9.60
2022-09-29T08:03:51.194Z,10.95
2022-09-29T08:06:18.314Z,8.75
2022-09-29T08:08:54.823Z,10.27
2022-09-29T08:11:31.582Z,13.07
2022-09-29T08:13:58.903Z,12.63
2022-09-29T08:16:25.925Z,8.73
2022-09-29T08:18:52.609Z,8.23
2022-09-29T08:21:19.090Z,10.45
2022-09-29T08:23:45.638Z,8.00
2022-09-29T08:26:31.551Z,6.55
2022-09-29T08:29:07.921Z,8.32
2022-09-29T08:34:03.873Z,8.32
2022-09-29T08:36:31.129Z,10.38
2022-09-29T08:38:57.811Z,7.82
2022-09-29T08:41:42.722Z,9.20
2022-09-29T08:44:37.107Z,10.68
2022-09-29T08:47:13.331Z,7.72
2022-09-29T08:49:46.032Z,7.93
2022-09-29T08:52:18.390Z,5.22
2022-09-29T08:54:49.134Z,7.43
2022-09-29T08:57:19.290Z,7.03
2022-09-29T09:00:04.371Z,7.45
2022-09-29T09:02:46.211Z,11.80
2022-09-29T09:05:21.665Z,6.43
2022-09-29T09:08:32.791Z,9.77
2022-09-29T09:11:20.818Z,11.55
2022-09-29T09:14:25.623Z,7.15
2022-09-29T09:17:20.309Z,10.90
2022-09-29T09:19:46.938Z,8.38
2022-09-29T09:22:19.831Z,5.68
2022-09-29T09:24:54.817Z,5.70
2022-09-29T09:27:31.119Z,6.32
2022-09-29T09:30:05.185Z,9.60
2022-09-29T09:32:37.848Z,8.50
2022-09-29T09:35:46.892Z,7.57
2022-09-29T09:38:23.589Z,7.53
2022-09-29T09:40:54.103Z,8.60
2022-09-29T09:43:38.707Z,7.03
2022-09-29T09:46:15.652Z,9.30
2022-09-29T09:48:48.454Z,11.13
2022-09-29T09:51:31.532Z,6.15
2022-09-29T09:54:05.006Z,5.53
2022-09-29T09:56:37.570Z,11.48
2022-09-29T09:59:47.192Z,5.25
2022-09-29T10:02:20.999Z,5.97
2022-09-29T10:04:51.199Z,4.35
2022-09-29T10:07:19.753Z,5.20
2022-09-29T10:09:47.262Z,3.97
2022-09-29T10:12:24.695Z,7.18
2022-09-29T10:15:12.177Z,6.13
2022-09-29T10:17:46.624Z,3.92
2022-09-29T10:20:13.192Z,2.78
2022-09-29T10:22:39.893Z,4.15
2022-09-29T10:25:12.407Z,2.65
2022-09-29T10:27:45.358Z,6.57
2022-09-29T10:30:35.238Z,4.63
2022-09-29T10:33:10.372Z,3.03
2022-09-29T10:35:41.135Z,4.70
2022-09-29T10:38:27.027Z,3.75
2022-09-29T10:43:27.712Z,3.67
2022-09-29T10:45:59.539Z,6.68
2022-09-29T10:48:27.235Z,6.13
2022-09-29T10:51:03.565Z,8.90
2022-09-29T10:53:40.021Z,7.50
2022-09-29T10:56:22.340Z,12.38
2022-09-29T10:59:01.450Z,3.60
2022-09-29T11:01:34.717Z,5.30
2022-09-29T11:04:04.016Z,3.88
2022-09-29T11:06:33.780Z,4.90
2022-09-29T11:09:05.068Z,8.07
2022-09-29T11:11:38.002Z,6.05
2022-09-29T11:14:04.927Z,2.00
2022-09-29T11:16:34.509Z,2.38
2022-09-29T11:19:12.497Z,2.80
2022-09-29T11:21:42.273Z,5.05
2022-09-29T11:24:26.714Z,9.13
2022-09-29T11:27:00.696Z,2.22
2022-09-29T11:29:45.439Z,2.70
2022-09-29T11:32:32.848Z,2.40
2022-09-29T11:35:18.229Z,8.70
2022-09-29T11:38:01.416Z,11.98
2022-09-29T11:40:58.337Z,4.88
2022-09-29T11:43:47.920Z,4.85
2022-09-29T11:46:28.945Z,3.67
2022-09-29T11:49:17.537Z,4.03
2022-09-29T11:52:27.223Z,2.67
2022-09-29T11:55:11.825Z,3.15
2022-09-29T11:58:09.060Z,7.18
2022-09-29T12:00:38.505Z,2.38
2022-09-29T12:03:23.395Z,6.57
2022-09-29T12:06:01.558Z,5.22
2022-09-29T12:08:58.061Z,3.72
2022-09-29T12:12:19.023Z,3.70
2022-09-29T12:14:56.615Z,6.43
2022-09-29T12:17:29.188Z,4.30
2022-09-29T12:20:03.445Z,5.78
2022-09-29T12:22:33.209Z,6.25
2022-09-29T12:25:03.107Z,5.93
2022-09-29T12:27:37.111Z,7.20
2022-09-29T12:30:15.847Z,5.63
2022-09-29T12:32:57.917Z,3.72
2022-09-29T12:35:38.785Z,7.00
2022-09-29T12:38:27.186Z,4.88
2022-09-29T12:41:07.367Z,4.85
2022-09-29T12:44:09.526Z,3.63
2022-09-29T12:46:53.335Z,9.02
2022-09-29T12:49:27.753Z,9.10
2022-09-29T12:51:57.007Z,5.15
2022-09-29T12:54:41.857Z,3.67
2022-09-29T12:57:15.066Z,6.63
2022-09-29T12:59:58.973Z,11.32
2022-09-29T13:02:46.939Z,4.20
2022-09-29T13:05:34.613Z,4.18
2022-09-29T13:08:22.390Z,4.80
2022-09-29T13:11:16.789Z,5.05
2022-09-29T13:14:12.572Z,6.72
2022-09-29T13:17:13.664Z,6.40
2022-09-29T13:19:59.770Z,7.50
2022-09-29T13:25:00.223Z,5.88
2022-09-29T13:27:36.030Z,4.00
2022-09-29T13:30:26.170Z,9.23
2022-09-29T13:33:02.645Z,4.82
2022-09-29T13:35:39.456Z,5.90
2022-09-29T13:38:08.574Z,5.38
2022-09-29T13:40:35.448Z,6.32
2022-09-29T13:43:05.433Z,5.13
2022-09-29T13:45:35.443Z,4.07
2022-09-29T13:48:16.941Z,5.53
2022-09-29T13:50:47.590Z,3.00
2022-09-29T13:53:25.445Z,5.40
2022-09-29T13:55:53.980Z,7.05
2022-09-29T13:58:29.154Z,7.88
2022-09-29T14:01:00.003Z,5.68
2022-09-29T14:03:43.701Z,10.27
2022-09-29T14:06:39.215Z,6.40
2022-09-29T14:09:33.453Z,13.13
2022-09-29T14:12:04.698Z,6.72
2022-09-29T14:14:45.688Z,7.10
2022-09-29T14:17:23.719Z,4.65
2022-09-29T14:19:54.413Z,6.20
2022-09-29T14:22:30.220Z,6.25
2022-09-29T14:25:16.726Z,5.78
2022-09-29T14:27:58.184Z,6.82
2022-09-29T14:30:37.142Z,3.38
2022-09-29T14:33:11.626Z,9.60
2022-09-29T14:35:44.264Z,2.90
2022-09-29T14:38:17.088Z,6.00
2022-09-29T14:41:32.077Z,7.57
2022-09-29T14:44:06.472Z,3.50
2022-09-29T14:47:25.126Z,6.65
2022-09-29T14:50:10.006Z,8.43
2022-09-29T14:53:19.643Z,5.32
2022-09-29T14:56:07.921Z,1.85
2022-09-29T14:58:58.247Z,6.75
2022-09-29T15:01:30.031Z,3.58
2022-09-29T15:04:11.379Z,2.47
2022-09-29T15:06:46.915Z,4.28
2022-09-29T15:11:45.243Z,4.07
2022-09-29T15:14:20.992Z,6.75
2022-09-29T15:17:12.354Z,4.43
2022-09-29T15:19:56.095Z,0.98
2022-09-29T15:22:30.796Z,2.55
2022-09-29T15:25:19.766Z,4.78
2022-09-29T15:27:51.039Z,1.40
2022-09-29T15:30:20.360Z,5.05
2022-09-29T15:32:49.530Z,1.98
2022-09-29T15:35:21.359Z,5.20
2022-09-29T15:37:50.994Z,2.45
2022-09-29T15:40:20.679Z,2.92
2022-09-29T15:42:48.381Z,2.20
2022-09-29T15:45:22.041Z,1.83
2022-09-29T15:47:49.087Z,1.98
2022-09-29T15:50:23.698Z,1.42
2022-09-29T15:52:51.163Z,2.72
2022-09-29T15:55:21.291Z,1.75
2022-09-29T15:57:57.825Z,1.83
2022-09-29T16:00:26.061Z,1.58
2022-09-29T16:03:11.270Z,1.15
2022-09-29T16:05:45.402Z,1.48
2022-09-29T16:08:25.104Z,3.33
2022-09-29T16:10:55.422Z,2.63
2022-09-29T16:13:28.243Z,1.45
2022-09-29T16:16:01.360Z,1.50
2022-09-29T16:18:41.297Z,3.78
2022-09-29T16:21:11.321Z,2.20
2022-09-29T16:24:05.877Z,1.33
2022-09-29T16:26:32.345Z,1.25
2022-09-29T16:29:21.296Z,4.40
2022-09-29T16:31:48.723Z,2.80
2022-09-29T16:34:21.411Z,3.38
2022-09-29T16:36:49.552Z,3.50
2022-09-29T16:39:20.210Z,2.67
2022-09-29T16:41:52.337Z,1.75
2022-09-29T16:44:29.201Z,2.28
2022-09-29T16:46:59.461Z,0.77
2022-09-29T16:49:32.177Z,0.85
2022-09-29T16:52:10.716Z,0.70
2022-09-29T16:54:43.416Z,3.72
2022-09-29T16:57:21.532Z,3.60
2022-09-29T16:59:52.111Z,1.55
2022-09-29T17:02:19.209Z,1.83
2022-09-29T17:04:45.853Z,2.20
2022-09-29T17:07:18.439Z,1.90
2022-09-29T17:09:48.425Z,2.45
2022-09-29T17:12:16.320Z,5.78
2022-09-29T17:14:45.119Z,1.65
2022-09-29T17:17:26.761Z,2.97
2022-09-29T17:19:57.735Z,2.22
2022-09-29T17:22:31.329Z,4.20
2022-09-29T17:24:59.032Z,3.95
2022-09-29T17:27:45.010Z,5.82
2022-09-29T17:32:42.239Z,1.50
2022-09-29T17:35:12.589Z,2.03
2022-09-29T17:37:39.900Z,1.20
2022-09-29T17:40:19.955Z,2.03
2022-09-29T17:42:47.189Z,4.72
2022-09-29T17:45:15.895Z,5.00
2022-09-29T17:47:43.961Z,6.03
2022-09-29T17:50:27.860Z,17.85
2022-09-29T17:52:55.051Z,15.50
2022-09-29T17:55:23.309Z,21.35
2022-09-29T17:57:52.132Z,17.27
2022-09-29T18:00:32.351Z,14.43
2022-09-29T18:02:59.251Z,15.70
2022-09-29T18:05:28.527Z,21.63
2022-09-29T18:07:56.705Z,11.95
2022-09-29T18:10:27.860Z,17.23
2022-09-29T18:12:55.148Z,10.27
2022-09-29T18:15:22.826Z,15.90
2022-09-29T18:17:49.567Z,18.35
2022-09-29T18:20:21.705Z,23.38
2022-09-29T18:22:48.601Z,23.10
2022-09-29T18:25:20.158Z,16.13
2022-09-29T18:27:47.902Z,19.38
2022-09-29T18:30:24.009Z,14.95
2022-09-29T18:32:55.694Z,13.93
2022-09-29T18:35:36.224Z,9.75
2022-09-29T18:38:02.923Z,13.43
2022-09-29T18:40:31.005Z,13.00
2022-09-29T18:42:59.528Z,15.27
2022-09-29T18:45:31.456Z,18.70
2022-09-29T18:48:03.341Z,13.57
2022-09-29T18:50:34.149Z,16.00
2022-09-29T18:53:01.690Z,21.20
2022-09-29T18:55:30.497Z,19.88
2022-09-29T18:57:58.549Z,32.17
2022-09-29T19:00:31.294Z,27.38
2022-09-29T19:02:59.830Z,26.35
2022-09-29T19:05:31.833Z,23.88
2022-09-29T19:08:01.033Z,27.25
2022-09-29T19:10:33.309Z,31.83
2022-09-29T19:13:04.076Z,35.05
2022-09-29T19:15:34.674Z,27.88
2022-09-29T19:18:02.719Z,17.52
2022-09-29T19:20:29.957Z,22.63
2022-09-29T19:22:58.662Z,27.92
2022-09-29T19:25:30.005Z,36.20
2022-09-29T19:27:57.653Z,38.83
2022-09-29T19:30:26.267Z,25.50
2022-09-29T19:32:53.677Z,26.98
2022-09-29T19:35:23.768Z,16.27
2022-09-29T19:37:51.520Z,32.33
2022-09-29T19:40:24.694Z,22.00
2022-09-29T19:42:51.985Z,22.63
2022-09-29T19:45:18.786Z,24.90
2022-09-29T19:47:45.509Z,31.05
2022-09-29T19:50:30.798Z,33.13
2022-09-29T19:52:57.509Z,29.17
2022-09-29T19:55:24.085Z,32.33
2022-09-29T19:57:50.647Z,34.55
2022-09-29T20:00:19.923Z,24.08
2022-09-29T20:02:47.051Z,21.15
2022-09-29T20:05:14.955Z,30.80
2022-09-29T20:07:43.971Z,28.77
2022-09-29T20:10:15.658Z,26.05
2022-09-29T20:12:42.421Z,25.92
2022-09-29T20:15:11.730Z,22.50
2022-09-29T20:17:40.142Z,25.00
2022-09-29T20:20:08.508Z,19.20
2022-09-29T20:22:36.330Z,17.50
2022-09-29T20:25:04.454Z,16.30
2022-09-29T20:27:31.807Z,16.33
2022-09-29T20:29:58.356Z,14.43
2022-09-29T20:32:25.261Z,14.98
2022-09-29T20:34:51.765Z,11.13
2022-09-29T20:37:18.281Z,15.55
2022-09-29T20:39:44.828Z,11.65
2022-09-29T20:42:11.782Z,12.63
2022-09-29T20:44:38.353Z,14.43
2022-09-29T20:47:05.895Z,13.73
2022-09-29T20:49:32.479Z,13.25
2022-09-29T20:51:59.584Z,19.88
2022-09-29T20:54:26.271Z,14.18
2022-09-29T20:56:53.610Z,14.32
2022-09-29T20:59:23.100Z,12.10
2022-09-29T21:01:52.219Z,20.20
2022-09-29T21:04:20.508Z,10.88
2022-09-29T21:06:49.445Z,10.05
2022-09-29T21:09:20.026Z,8.23
2022-09-29T21:11:47.238Z,23.73
2022-09-29T21:14:16.672Z,19.50
2022-09-29T21:16:45.136Z,17.15
2022-09-29T21:19:12.804Z,20.98
2022-09-29T21:21:40.912Z,24.52
2022-09-29T21:24:08.854Z,23.75
2022-09-29T21:26:35.870Z,29.60
2022-09-29T21:29:03.279Z,26.23
2022-09-29T21:31:34.571Z,18.75
2022-09-29T21:34:04.810Z,25.35
2022-09-29T21:36:33.600Z,22.55
2022-09-29T21:39:02.861Z,20.45
2022-09-29T21:41:33.832Z,18.65
2022-09-29T21:44:04.330Z,26.08
2022-09-29T21:46:33.712Z,24.20
2022-09-29T21:49:03.114Z,27.25
2022-09-29T21:51:35.481Z,31.23
2022-09-29T21:54:04.098Z,27.83
2022-09-29T21:56:40.275Z,26.77
2022-09-29T21:59:08.294Z,18.13
2022-09-29T22:01:35.329Z,17.40
2022-09-29T22:04:02.444Z,17.42
2022-09-29T22:06:31.154Z,19.48
2022-09-29T22:08:59.020Z,17.48
2022-09-29T22:11:29.300Z,18.80
2022-09-29T22:13:58.220Z,12.45
2022-09-29T22:16:29.013Z,15.18
2022-09-29T22:19:21.509Z,15.32
2022-09-29T22:21:44.984Z,14.50
2022-09-29T22:24:12.402Z,13.63
2022-09-29T22:26:40.511Z,11.05
2022-09-29T22:29:07.094Z,13.30
2022-09-29T22:31:34.411Z,15.05
2022-09-29T22:34:04.118Z,13.98
2022-09-29T22:36:33.387Z,12.75
2022-09-29T22:39:01.678Z,8.57
2022-09-29T22:41:29.009Z,13.73
2022-09-29T22:43:58.883Z,16.85
2022-09-29T22:46:27.978Z,13.13
2022-09-29T22:48:54.947Z,14.52
2022-09-29T22:51:21.663Z,11.68
2022-09-29T22:53:48.831Z,13.88
2022-09-29T22:56:21.576Z,13.68
2022-09-29T22:58:49.596Z,11.48
2022-09-29T23:01:18.166Z,11.48
2022-09-29T23:03:45.633Z,11.13
2022-09-29T23:06:13.047Z,9.40
2022-09-29T23:08:40.346Z,9.40
2022-09-29T23:11:08.288Z,11.60
2022-09-29T23:13:36.896Z,10.57
2022-09-29T23:16:12.071Z,8.85
2022-09-29T23:18:49.357Z,11.10
2022-09-29T23:21:20.809Z,10.45
2022-09-29T23:23:51.571Z,11.27
2022-09-29T23:26:18.667Z,11.80
2022-09-29T23:28:45.333Z,9.35
2022-09-29T23:31:12.479Z,20.02
2022-09-29T23:33:39.036Z,10.93
2022-09-29T23:36:10.932Z,13.38
2022-09-29T23:39:01.068Z,12.15
2022-09-29T23:41:29.752Z,13.40
2022-09-29T23:43:59.617Z,8.77
2022-09-29T23:46:31.293Z,12.60
2022-09-29T23:49:02.114Z,10.73
2022-09-29T23:51:32.562Z,13.00
2022-09-29T23:54:00.167Z,8.18
2022-09-29T23:56:27.505Z,8.10
2022-09-29T23:58:54.092Z,11.45
